sensor_id;sensor_type;location;lat;lon;timestamp;temperature;humidity
16643;DHT22;8435;52.184;5.406;2023-06-19T00:00:30;25.60;66.00
16643;DHT22;8435;52.184;5.406;2023-06-19T00:02:57;25.60;66.10
16643;DHT22;8435;52.184;5.406;2023-06-19T00:05:24;25.60;66.10
16643;DHT22;8435;52.184;5.406;2023-06-19T00:07:51;25.60;66.30
16643;DHT22;8435;52.184;5.406;2023-06-19T00:10:18;25.60;66.20
16643;DHT22;8435;52.184;5.406;2023-06-19T00:12:46;25.60;66.10
16643;DHT22;8435;52.184;5.406;2023-06-19T00:15:14;25.50;66.20
16643;DHT22;8435;52.184;5.406;2023-06-19T00:17:40;25.50;66.10
16643;DHT22;8435;52.184;5.406;2023-06-19T00:20:08;25.50;66.30
16643;DHT22;8435;52.184;5.406;2023-06-19T00:22:35;25.50;66.30
16643;DHT22;8435;52.184;5.406;2023-06-19T00:25:02;25.50;66.40
16643;DHT22;8435;52.184;5.406;2023-06-19T00:27:28;25.50;66.50
16643;DHT22;8435;52.184;5.406;2023-06-19T00:29:57;25.50;66.60
16643;DHT22;8435;52.184;5.406;2023-06-19T00:32:27;25.50;66.80
16643;DHT22;8435;52.184;5.406;2023-06-19T00:34:54;25.50;67.00
16643;DHT22;8435;52.184;5.406;2023-06-19T00:37:21;25.50;67.10
16643;DHT22;8435;52.184;5.406;2023-06-19T00:39:48;25.50;67.10
16643;DHT22;8435;52.184;5.406;2023-06-19T00:42:15;25.50;67.30
16643;DHT22;8435;52.184;5.406;2023-06-19T00:44:41;25.50;67.40
16643;DHT22;8435;52.184;5.406;2023-06-19T00:47:10;25.50;67.60
16643;DHT22;8435;52.184;5.406;2023-06-19T00:49:37;25.50;67.90
16643;DHT22;8435;52.184;5.406;2023-06-19T00:52:05;25.50;67.90
16643;DHT22;8435;52.184;5.406;2023-06-19T00:54:32;25.50;68.10
16643;DHT22;8435;52.184;5.406;2023-06-19T00:56:59;25.50;68.40
16643;DHT22;8435;52.184;5.406;2023-06-19T00:59:26;25.50;68.70
16643;DHT22;8435;52.184;5.406;2023-06-19T01:01:54;25.50;69.10
16643;DHT22;8435;52.184;5.406;2023-06-19T01:04:22;25.50;69.30
16643;DHT22;8435;52.184;5.406;2023-06-19T01:06:53;25.50;69.90
16643;DHT22;8435;52.184;5.406;2023-06-19T01:09:26;25.50;70.20
16643;DHT22;8435;52.184;5.406;2023-06-19T01:11:57;25.50;70.70
16643;DHT22;8435;52.184;5.406;2023-06-19T01:14:28;25.40;70.70
16643;DHT22;8435;52.184;5.406;2023-06-19T01:16:57;25.40;70.90
16643;DHT22;8435;52.184;5.406;2023-06-19T01:19:26;25.40;71.00
16643;DHT22;8435;52.184;5.406;2023-06-19T01:21:54;25.30;71.30
16643;DHT22;8435;52.184;5.406;2023-06-19T01:24:22;25.30;71.80
16643;DHT22;8435;52.184;5.406;2023-06-19T01:26:48;25.30;72.10
16643;DHT22;8435;52.184;5.406;2023-06-19T01:29:16;25.30;72.50
16643;DHT22;8435;52.184;5.406;2023-06-19T01:31:49;25.20;72.60
16643;DHT22;8435;52.184;5.406;2023-06-19T01:34:18;25.10;73.00
16643;DHT22;8435;52.184;5.406;2023-06-19T01:36:47;25.10;73.10
16643;DHT22;8435;52.184;5.406;2023-06-19T01:39:15;25.10;73.60
16643;DHT22;8435;52.184;5.406;2023-06-19T01:41:45;25.10;74.20
16643;DHT22;8435;52.184;5.406;2023-06-19T01:44:12;24.90;74.70
16643;DHT22;8435;52.184;5.406;2023-06-19T01:46:39;24.90;74.70
16643;DHT22;8435;52.184;5.406;2023-06-19T01:49:07;24.90;75.30
16643;DHT22;8435;52.184;5.406;2023-06-19T01:51:35;24.80;75.60
16643;DHT22;8435;52.184;5.406;2023-06-19T01:54:02;24.80;76.40
16643;DHT22;8435;52.184;5.406;2023-06-19T01:56:29;24.70;76.70
16643;DHT22;8435;52.184;5.406;2023-06-19T01:58:58;24.70;77.00
16643;DHT22;8435;52.184;5.406;2023-06-19T02:01:25;24.60;77.60
16643;DHT22;8435;52.184;5.406;2023-06-19T02:03:51;24.60;77.90
16643;DHT22;8435;52.184;5.406;2023-06-19T02:06:18;24.50;78.20
16643;DHT22;8435;52.184;5.406;2023-06-19T02:08:47;24.50;78.50
16643;DHT22;8435;52.184;5.406;2023-06-19T02:11:14;24.50;79.20
16643;DHT22;8435;52.184;5.406;2023-06-19T02:13:41;24.50;79.30
16643;DHT22;8435;52.184;5.406;2023-06-19T02:16:09;24.40;79.60
16643;DHT22;8435;52.184;5.406;2023-06-19T02:18:36;24.40;80.30
16643;DHT22;8435;52.184;5.406;2023-06-19T02:21:03;24.40;80.40
16643;DHT22;8435;52.184;5.406;2023-06-19T02:23:30;24.40;81.30
16643;DHT22;8435;52.184;5.406;2023-06-19T02:25:56;24.30;81.00
16643;DHT22;8435;52.184;5.406;2023-06-19T02:28:23;24.30;81.40
16643;DHT22;8435;52.184;5.406;2023-06-19T02:30:50;24.30;81.70
16643;DHT22;8435;52.184;5.406;2023-06-19T02:33:18;24.30;82.20
16643;DHT22;8435;52.184;5.406;2023-06-19T02:35:45;24.30;83.00
16643;DHT22;8435;52.184;5.406;2023-06-19T02:38:12;24.30;82.90
16643;DHT22;8435;52.184;5.406;2023-06-19T02:40:40;24.30;83.40
16643;DHT22;8435;52.184;5.406;2023-06-19T02:43:06;24.20;84.00
16643;DHT22;8435;52.184;5.406;2023-06-19T02:45:33;24.20;84.30
16643;DHT22;8435;52.184;5.406;2023-06-19T02:48:00;24.20;84.50
16643;DHT22;8435;52.184;5.406;2023-06-19T02:50:28;24.20;84.60
16643;DHT22;8435;52.184;5.406;2023-06-19T02:52:55;24.20;85.30
16643;DHT22;8435;52.184;5.406;2023-06-19T02:55:21;24.20;85.40
16643;DHT22;8435;52.184;5.406;2023-06-19T02:57:48;24.10;85.60
16643;DHT22;8435;52.184;5.406;2023-06-19T03:00:15;24.10;85.70
16643;DHT22;8435;52.184;5.406;2023-06-19T03:02:42;24.10;86.20
16643;DHT22;8435;52.184;5.406;2023-06-19T03:05:12;24.10;86.60
16643;DHT22;8435;52.184;5.406;2023-06-19T03:07:41;24.10;86.50
16643;DHT22;8435;52.184;5.406;2023-06-19T03:10:09;24.00;86.90
16643;DHT22;8435;52.184;5.406;2023-06-19T03:12:35;24.10;86.90
16643;DHT22;8435;52.184;5.406;2023-06-19T03:15:03;24.00;87.00
16643;DHT22;8435;52.184;5.406;2023-06-19T03:17:30;24.00;87.20
16643;DHT22;8435;52.184;5.406;2023-06-19T03:19:56;24.00;87.50
16643;DHT22;8435;52.184;5.406;2023-06-19T03:22:23;24.00;87.60
16643;DHT22;8435;52.184;5.406;2023-06-19T03:24:51;24.00;88.00
16643;DHT22;8435;52.184;5.406;2023-06-19T03:27:18;24.00;88.40
16643;DHT22;8435;52.184;5.406;2023-06-19T03:29:45;24.00;88.30
16643;DHT22;8435;52.184;5.406;2023-06-19T03:32:12;24.00;88.40
16643;DHT22;8435;52.184;5.406;2023-06-19T03:34:38;24.00;88.70
16643;DHT22;8435;52.184;5.406;2023-06-19T03:37:05;24.00;88.80
16643;DHT22;8435;52.184;5.406;2023-06-19T03:39:32;23.90;89.50
16643;DHT22;8435;52.184;5.406;2023-06-19T03:42:00;23.90;89.60
16643;DHT22;8435;52.184;5.406;2023-06-19T03:44:27;23.90;89.90
16643;DHT22;8435;52.184;5.406;2023-06-19T03:46:53;23.90;89.80
16643;DHT22;8435;52.184;5.406;2023-06-19T03:49:20;23.90;90.00
16643;DHT22;8435;52.184;5.406;2023-06-19T03:51:47;23.90;90.20
16643;DHT22;8435;52.184;5.406;2023-06-19T03:54:14;23.90;90.30
16643;DHT22;8435;52.184;5.406;2023-06-19T03:56:41;23.90;90.40
16643;DHT22;8435;52.184;5.406;2023-06-19T03:59:09;23.80;90.40
16643;DHT22;8435;52.184;5.406;2023-06-19T04:01:35;23.80;90.60
16643;DHT22;8435;52.184;5.406;2023-06-19T04:04:02;23.80;90.60
16643;DHT22;8435;52.184;5.406;2023-06-19T04:06:29;23.80;90.80
16643;DHT22;8435;52.184;5.406;2023-06-19T04:08:56;23.80;90.90
16643;DHT22;8435;52.184;5.406;2023-06-19T04:11:23;23.80;91.00
16643;DHT22;8435;52.184;5.406;2023-06-19T04:13:49;23.80;91.10
16643;DHT22;8435;52.184;5.406;2023-06-19T04:16:17;23.80;91.40
16643;DHT22;8435;52.184;5.406;2023-06-19T04:18:44;23.80;91.60
16643;DHT22;8435;52.184;5.406;2023-06-19T04:21:11;23.70;91.70
16643;DHT22;8435;52.184;5.406;2023-06-19T04:23:38;23.80;91.70
16643;DHT22;8435;52.184;5.406;2023-06-19T04:26:05;23.70;91.80
16643;DHT22;8435;52.184;5.406;2023-06-19T04:28:31;23.70;92.00
16643;DHT22;8435;52.184;5.406;2023-06-19T04:30:58;23.70;92.10
16643;DHT22;8435;52.184;5.406;2023-06-19T04:33:28;23.70;92.30
16643;DHT22;8435;52.184;5.406;2023-06-19T04:35:55;23.60;92.30
16643;DHT22;8435;52.184;5.406;2023-06-19T04:38:22;23.60;92.30
16643;DHT22;8435;52.184;5.406;2023-06-19T04:40:49;23.60;92.30
16643;DHT22;8435;52.184;5.406;2023-06-19T04:43:16;23.60;92.40
16643;DHT22;8435;52.184;5.406;2023-06-19T04:45:43;23.60;92.30
16643;DHT22;8435;52.184;5.406;2023-06-19T04:48:10;23.60;92.40
16643;DHT22;8435;52.184;5.406;2023-06-19T04:50:39;23.60;92.60
16643;DHT22;8435;52.184;5.406;2023-06-19T04:53:05;23.50;92.80
16643;DHT22;8435;52.184;5.406;2023-06-19T04:55:32;23.50;92.80
16643;DHT22;8435;52.184;5.406;2023-06-19T04:57:59;23.50;92.80
16643;DHT22;8435;52.184;5.406;2023-06-19T05:00:25;23.50;92.90
16643;DHT22;8435;52.184;5.406;2023-06-19T05:02:52;23.50;93.00
16643;DHT22;8435;52.184;5.406;2023-06-19T05:05:19;23.50;92.90
16643;DHT22;8435;52.184;5.406;2023-06-19T05:07:47;23.50;93.00
16643;DHT22;8435;52.184;5.406;2023-06-19T05:10:14;23.50;93.10
16643;DHT22;8435;52.184;5.406;2023-06-19T05:12:40;23.40;92.90
16643;DHT22;8435;52.184;5.406;2023-06-19T05:15:08;23.40;93.00
16643;DHT22;8435;52.184;5.406;2023-06-19T05:17:35;23.40;92.80
16643;DHT22;8435;52.184;5.406;2023-06-19T05:20:05;23.40;92.70
16643;DHT22;8435;52.184;5.406;2023-06-19T05:22:32;23.40;92.70
16643;DHT22;8435;52.184;5.406;2023-06-19T05:25:00;23.40;92.70
16643;DHT22;8435;52.184;5.406;2023-06-19T05:27:27;23.40;92.70
16643;DHT22;8435;52.184;5.406;2023-06-19T05:29:54;23.40;92.70
16643;DHT22;8435;52.184;5.406;2023-06-19T05:32:21;23.40;92.70
16643;DHT22;8435;52.184;5.406;2023-06-19T05:34:47;23.40;92.70
16643;DHT22;8435;52.184;5.406;2023-06-19T05:37:15;23.40;92.70
16643;DHT22;8435;52.184;5.406;2023-06-19T05:39:42;23.40;92.80
16643;DHT22;8435;52.184;5.406;2023-06-19T05:42:10;23.40;92.80
16643;DHT22;8435;52.184;5.406;2023-06-19T05:44:37;23.40;92.80
16643;DHT22;8435;52.184;5.406;2023-06-19T05:47:04;23.40;92.70
16643;DHT22;8435;52.184;5.406;2023-06-19T05:49:31;23.50;92.70
16643;DHT22;8435;52.184;5.406;2023-06-19T05:51:58;23.50;92.60
16643;DHT22;8435;52.184;5.406;2023-06-19T05:54:25;23.50;92.50
16643;DHT22;8435;52.184;5.406;2023-06-19T05:56:52;23.60;92.40
16643;DHT22;8435;52.184;5.406;2023-06-19T05:59:20;23.60;92.30
16643;DHT22;8435;52.184;5.406;2023-06-19T06:01:47;23.60;92.30
16643;DHT22;8435;52.184;5.406;2023-06-19T06:04:15;23.60;92.20
16643;DHT22;8435;52.184;5.406;2023-06-19T06:06:42;23.60;92.20
16643;DHT22;8435;52.184;5.406;2023-06-19T06:09:09;23.50;92.20
16643;DHT22;8435;52.184;5.406;2023-06-19T06:11:37;23.50;92.20
16643;DHT22;8435;52.184;5.406;2023-06-19T06:14:04;23.50;92.10
16643;DHT22;8435;52.184;5.406;2023-06-19T06:16:32;23.50;92.10
16643;DHT22;8435;52.184;5.406;2023-06-19T06:18:59;23.40;92.00
16643;DHT22;8435;52.184;5.406;2023-06-19T06:21:26;23.40;92.00
16643;DHT22;8435;52.184;5.406;2023-06-19T06:23:52;23.40;92.10
16643;DHT22;8435;52.184;5.406;2023-06-19T06:26:20;23.40;92.10
16643;DHT22;8435;52.184;5.406;2023-06-19T06:28:47;23.40;92.10
16643;DHT22;8435;52.184;5.406;2023-06-19T06:31:13;23.50;91.90
16643;DHT22;8435;52.184;5.406;2023-06-19T06:33:44;23.50;91.70
16643;DHT22;8435;52.184;5.406;2023-06-19T06:36:11;23.60;91.70
16643;DHT22;8435;52.184;5.406;2023-06-19T06:38:40;23.70;91.60
16643;DHT22;8435;52.184;5.406;2023-06-19T06:41:07;23.80;91.40
16643;DHT22;8435;52.184;5.406;2023-06-19T06:43:37;23.80;91.30
16643;DHT22;8435;52.184;5.406;2023-06-19T06:46:05;23.90;91.10
16643;DHT22;8435;52.184;5.406;2023-06-19T06:48:32;24.00;91.00
16643;DHT22;8435;52.184;5.406;2023-06-19T06:51:00;24.00;90.90
16643;DHT22;8435;52.184;5.406;2023-06-19T06:53:27;24.10;90.90
16643;DHT22;8435;52.184;5.406;2023-06-19T06:55:54;24.10;90.80
16643;DHT22;8435;52.184;5.406;2023-06-19T06:58:21;24.10;90.70
16643;DHT22;8435;52.184;5.406;2023-06-19T07:00:48;24.10;90.50
16643;DHT22;8435;52.184;5.406;2023-06-19T07:03:16;24.10;90.50
16643;DHT22;8435;52.184;5.406;2023-06-19T07:05:43;24.00;90.40
16643;DHT22;8435;52.184;5.406;2023-06-19T07:08:11;24.00;90.50
16643;DHT22;8435;52.184;5.406;2023-06-19T07:10:38;24.00;90.60
16643;DHT22;8435;52.184;5.406;2023-06-19T07:13:05;24.00;90.60
16643;DHT22;8435;52.184;5.406;2023-06-19T07:15:31;24.00;90.50
16643;DHT22;8435;52.184;5.406;2023-06-19T07:17:58;24.00;90.60
16643;DHT22;8435;52.184;5.406;2023-06-19T07:20:25;24.00;90.60
16643;DHT22;8435;52.184;5.406;2023-06-19T07:22:52;23.90;90.50
16643;DHT22;8435;52.184;5.406;2023-06-19T07:25:20;23.90;90.50
16643;DHT22;8435;52.184;5.406;2023-06-19T07:27:49;23.90;90.50
16643;DHT22;8435;52.184;5.406;2023-06-19T07:30:16;23.90;90.50
16643;DHT22;8435;52.184;5.406;2023-06-19T07:32:46;24.00;90.90
16643;DHT22;8435;52.184;5.406;2023-06-19T07:35:12;24.00;90.60
16643;DHT22;8435;52.184;5.406;2023-06-19T07:37:39;24.00;90.60
16643;DHT22;8435;52.184;5.406;2023-06-19T07:40:06;24.00;90.40
16643;DHT22;8435;52.184;5.406;2023-06-19T07:42:35;24.10;90.40
16643;DHT22;8435;52.184;5.406;2023-06-19T07:45:04;24.10;90.30
16643;DHT22;8435;52.184;5.406;2023-06-19T07:47:31;24.20;90.20
16643;DHT22;8435;52.184;5.406;2023-06-19T07:49:58;24.20;90.20
16643;DHT22;8435;52.184;5.406;2023-06-19T07:52:25;24.30;90.20
16643;DHT22;8435;52.184;5.406;2023-06-19T07:54:53;24.30;90.20
16643;DHT22;8435;52.184;5.406;2023-06-19T07:57:20;24.40;90.10
16643;DHT22;8435;52.184;5.406;2023-06-19T07:59:49;24.40;89.90
16643;DHT22;8435;52.184;5.406;2023-06-19T08:02:16;24.50;90.10
16643;DHT22;8435;52.184;5.406;2023-06-19T08:04:43;24.60;90.20
16643;DHT22;8435;52.184;5.406;2023-06-19T08:07:10;24.70;89.80
16643;DHT22;8435;52.184;5.406;2023-06-19T08:09:36;24.90;89.40
16643;DHT22;8435;52.184;5.406;2023-06-19T08:12:04;25.00;89.10
16643;DHT22;8435;52.184;5.406;2023-06-19T08:14:30;25.10;88.80
16643;DHT22;8435;52.184;5.406;2023-06-19T08:16:58;25.30;88.60
16643;DHT22;8435;52.184;5.406;2023-06-19T08:19:25;25.40;88.10
16643;DHT22;8435;52.184;5.406;2023-06-19T08:21:52;25.60;88.20
16643;DHT22;8435;52.184;5.406;2023-06-19T08:24:19;25.70;88.00
16643;DHT22;8435;52.184;5.406;2023-06-19T08:26:45;25.80;87.90
16643;DHT22;8435;52.184;5.406;2023-06-19T08:29:16;26.10;87.60
16643;DHT22;8435;52.184;5.406;2023-06-19T08:31:43;26.30;86.70
16643;DHT22;8435;52.184;5.406;2023-06-19T08:34:11;26.50;86.40
16643;DHT22;8435;52.184;5.406;2023-06-19T08:36:38;26.70;85.60
16643;DHT22;8435;52.184;5.406;2023-06-19T08:39:04;26.80;84.00
16643;DHT22;8435;52.184;5.406;2023-06-19T08:41:33;26.90;83.30
16643;DHT22;8435;52.184;5.406;2023-06-19T08:44:00;27.00;82.90
16643;DHT22;8435;52.184;5.406;2023-06-19T08:46:28;27.10;82.50
16643;DHT22;8435;52.184;5.406;2023-06-19T08:48:55;27.10;82.30
16643;DHT22;8435;52.184;5.406;2023-06-19T08:51:23;27.10;82.40
16643;DHT22;8435;52.184;5.406;2023-06-19T08:53:56;27.20;81.40
16643;DHT22;8435;52.184;5.406;2023-06-19T08:56:22;27.20;80.90
16643;DHT22;8435;52.184;5.406;2023-06-19T08:58:49;27.20;81.20
16643;DHT22;8435;52.184;5.406;2023-06-19T09:01:17;27.20;80.70
16643;DHT22;8435;52.184;5.406;2023-06-19T09:03:44;27.20;80.50
16643;DHT22;8435;52.184;5.406;2023-06-19T09:06:14;27.20;80.70
16643;DHT22;8435;52.184;5.406;2023-06-19T09:08:42;27.10;80.60
16643;DHT22;8435;52.184;5.406;2023-06-19T09:11:10;27.10;80.70
16643;DHT22;8435;52.184;5.406;2023-06-19T09:13:37;27.10;80.10
16643;DHT22;8435;52.184;5.406;2023-06-19T09:16:05;27.20;80.50
16643;DHT22;8435;52.184;5.406;2023-06-19T09:18:42;27.20;80.10
16643;DHT22;8435;52.184;5.406;2023-06-19T09:21:15;27.20;80.10
16643;DHT22;8435;52.184;5.406;2023-06-19T09:23:43;27.20;80.10
16643;DHT22;8435;52.184;5.406;2023-06-19T09:26:10;27.30;80.10
16643;DHT22;8435;52.184;5.406;2023-06-19T09:28:40;27.40;79.70
16643;DHT22;8435;52.184;5.406;2023-06-19T09:31:07;27.40;79.00
16643;DHT22;8435;52.184;5.406;2023-06-19T09:33:34;27.50;79.00
16643;DHT22;8435;52.184;5.406;2023-06-19T09:36:03;27.50;78.20
16643;DHT22;8435;52.184;5.406;2023-06-19T09:38:32;27.50;77.80
16643;DHT22;8435;52.184;5.406;2023-06-19T09:41:02;27.50;77.40
16643;DHT22;8435;52.184;5.406;2023-06-19T09:43:33;27.40;76.80
16643;DHT22;8435;52.184;5.406;2023-06-19T09:46:02;27.40;77.30
16643;DHT22;8435;52.184;5.406;2023-06-19T09:48:30;27.30;77.40
16643;DHT22;8435;52.184;5.406;2023-06-19T09:51:01;27.30;77.70
16643;DHT22;8435;52.184;5.406;2023-06-19T09:53:31;27.30;77.70
16643;DHT22;8435;52.184;5.406;2023-06-19T09:56:00;27.20;78.00
16643;DHT22;8435;52.184;5.406;2023-06-19T09:58:27;27.20;78.60
16643;DHT22;8435;52.184;5.406;2023-06-19T10:00:54;27.30;78.70
16643;DHT22;8435;52.184;5.406;2023-06-19T10:03:30;27.40;78.20
16643;DHT22;8435;52.184;5.406;2023-06-19T10:05:58;27.50;77.60
16643;DHT22;8435;52.184;5.406;2023-06-19T10:08:29;27.50;77.50
16643;DHT22;8435;52.184;5.406;2023-06-19T10:10:56;27.60;77.40
16643;DHT22;8435;52.184;5.406;2023-06-19T10:13:31;27.60;77.70
16643;DHT22;8435;52.184;5.406;2023-06-19T10:15:59;27.60;77.00
16643;DHT22;8435;52.184;5.406;2023-06-19T10:18:26;27.70;76.50
16643;DHT22;8435;52.184;5.406;2023-06-19T10:20:54;27.80;76.50
16643;DHT22;8435;52.184;5.406;2023-06-19T10:23:23;27.90;76.80
16643;DHT22;8435;52.184;5.406;2023-06-19T10:25:56;28.00;76.60
16643;DHT22;8435;52.184;5.406;2023-06-19T10:28:26;28.10;76.30
16643;DHT22;8435;52.184;5.406;2023-06-19T10:30:54;28.20;75.10
16643;DHT22;8435;52.184;5.406;2023-06-19T10:33:21;28.30;75.00
16643;DHT22;8435;52.184;5.406;2023-06-19T10:35:48;28.30;74.40
16643;DHT22;8435;52.184;5.406;2023-06-19T10:38:15;28.40;73.80
16643;DHT22;8435;52.184;5.406;2023-06-19T10:40:43;28.50;73.50
16643;DHT22;8435;52.184;5.406;2023-06-19T10:43:10;28.60;73.30
16643;DHT22;8435;52.184;5.406;2023-06-19T10:45:39;28.60;73.00
16643;DHT22;8435;52.184;5.406;2023-06-19T10:48:05;28.70;73.30
16643;DHT22;8435;52.184;5.406;2023-06-19T10:50:37;28.80;73.40
16643;DHT22;8435;52.184;5.406;2023-06-19T10:53:06;28.90;72.30
16643;DHT22;8435;52.184;5.406;2023-06-19T10:55:35;29.00;72.00
16643;DHT22;8435;52.184;5.406;2023-06-19T10:58:02;29.10;70.50
16643;DHT22;8435;52.184;5.406;2023-06-19T11:00:32;29.10;70.30
16643;DHT22;8435;52.184;5.406;2023-06-19T11:03:00;29.10;70.20
16643;DHT22;8435;52.184;5.406;2023-06-19T11:05:27;29.10;69.90
16643;DHT22;8435;52.184;5.406;2023-06-19T11:07:56;29.10;70.20
16643;DHT22;8435;52.184;5.406;2023-06-19T11:10:24;29.20;69.80
16643;DHT22;8435;52.184;5.406;2023-06-19T11:12:54;29.20;69.40
16643;DHT22;8435;52.184;5.406;2023-06-19T11:15:28;29.20;68.80
16643;DHT22;8435;52.184;5.406;2023-06-19T11:17:55;29.10;68.20
16643;DHT22;8435;52.184;5.406;2023-06-19T11:20:23;29.10;68.80
16643;DHT22;8435;52.184;5.406;2023-06-19T11:22:55;29.10;68.80
16643;DHT22;8435;52.184;5.406;2023-06-19T11:25:22;29.10;67.90
16643;DHT22;8435;52.184;5.406;2023-06-19T11:27:51;29.10;68.30
16643;DHT22;8435;52.184;5.406;2023-06-19T11:30:30;29.00;68.30
16643;DHT22;8435;52.184;5.406;2023-06-19T11:32:58;29.00;68.70
16643;DHT22;8435;52.184;5.406;2023-06-19T11:35:33;29.00;69.00
16643;DHT22;8435;52.184;5.406;2023-06-19T11:38:01;29.00;68.10
16643;DHT22;8435;52.184;5.406;2023-06-19T11:40:28;29.00;68.60
16643;DHT22;8435;52.184;5.406;2023-06-19T11:42:55;29.10;68.80
16643;DHT22;8435;52.184;5.406;2023-06-19T11:45:22;29.10;69.20
16643;DHT22;8435;52.184;5.406;2023-06-19T11:47:49;29.20;69.40
16643;DHT22;8435;52.184;5.406;2023-06-19T11:50:16;29.20;69.30
16643;DHT22;8435;52.184;5.406;2023-06-19T11:52:46;29.30;68.00
16643;DHT22;8435;52.184;5.406;2023-06-19T11:55:13;29.40;67.50
16643;DHT22;8435;52.184;5.406;2023-06-19T11:57:41;29.50;67.50
16643;DHT22;8435;52.184;5.406;2023-06-19T12:00:14;29.50;67.00
16643;DHT22;8435;52.184;5.406;2023-06-19T12:02:41;29.50;65.50
16643;DHT22;8435;52.184;5.406;2023-06-19T12:05:08;29.50;65.50
16643;DHT22;8435;52.184;5.406;2023-06-19T12:07:36;29.50;65.40
16643;DHT22;8435;52.184;5.406;2023-06-19T12:10:05;29.40;65.30
16643;DHT22;8435;52.184;5.406;2023-06-19T12:12:35;29.30;65.00
16643;DHT22;8435;52.184;5.406;2023-06-19T12:15:04;29.20;65.40
16643;DHT22;8435;52.184;5.406;2023-06-19T12:17:31;29.10;65.40
16643;DHT22;8435;52.184;5.406;2023-06-19T12:19:58;29.10;65.40
16643;DHT22;8435;52.184;5.406;2023-06-19T12:22:25;29.00;65.50
16643;DHT22;8435;52.184;5.406;2023-06-19T12:24:52;29.00;65.80
16643;DHT22;8435;52.184;5.406;2023-06-19T12:27:20;29.00;66.00
16643;DHT22;8435;52.184;5.406;2023-06-19T12:29:47;29.00;65.80
16643;DHT22;8435;52.184;5.406;2023-06-19T12:32:14;29.00;65.30
16643;DHT22;8435;52.184;5.406;2023-06-19T12:34:41;29.00;65.40
16643;DHT22;8435;52.184;5.406;2023-06-19T12:37:12;29.10;65.80
16643;DHT22;8435;52.184;5.406;2023-06-19T12:39:39;29.00;65.80
16643;DHT22;8435;52.184;5.406;2023-06-19T12:42:06;29.10;65.80
16643;DHT22;8435;52.184;5.406;2023-06-19T12:44:34;29.10;66.30
16643;DHT22;8435;52.184;5.406;2023-06-19T12:47:01;29.10;65.60
16643;DHT22;8435;52.184;5.406;2023-06-19T12:49:30;29.10;65.80
16643;DHT22;8435;52.184;5.406;2023-06-19T12:51:57;29.10;65.80
16643;DHT22;8435;52.184;5.406;2023-06-19T12:54:24;29.10;65.30
16643;DHT22;8435;52.184;5.406;2023-06-19T12:56:50;29.20;65.30
16643;DHT22;8435;52.184;5.406;2023-06-19T12:59:17;29.20;65.40
16643;DHT22;8435;52.184;5.406;2023-06-19T13:01:46;29.20;65.30
16643;DHT22;8435;52.184;5.406;2023-06-19T13:04:12;29.20;65.40
16643;DHT22;8435;52.184;5.406;2023-06-19T13:06:39;29.20;65.50
16643;DHT22;8435;52.184;5.406;2023-06-19T13:09:06;29.20;65.50
16643;DHT22;8435;52.184;5.406;2023-06-19T13:11:33;29.20;64.80
16643;DHT22;8435;52.184;5.406;2023-06-19T13:14:01;29.20;65.20
16643;DHT22;8435;52.184;5.406;2023-06-19T13:16:27;29.20;64.70
16643;DHT22;8435;52.184;5.406;2023-06-19T13:18:55;29.20;64.70
16643;DHT22;8435;52.184;5.406;2023-06-19T13:21:22;29.10;64.90
16643;DHT22;8435;52.184;5.406;2023-06-19T13:23:49;29.10;65.20
16643;DHT22;8435;52.184;5.406;2023-06-19T13:26:15;29.10;65.40
16643;DHT22;8435;52.184;5.406;2023-06-19T13:28:42;29.10;65.00
16643;DHT22;8435;52.184;5.406;2023-06-19T13:31:09;29.10;64.90
16643;DHT22;8435;52.184;5.406;2023-06-19T13:33:36;29.10;64.80
16643;DHT22;8435;52.184;5.406;2023-06-19T13:36:04;29.10;64.80
16643;DHT22;8435;52.184;5.406;2023-06-19T13:38:31;29.10;65.00
16643;DHT22;8435;52.184;5.406;2023-06-19T13:41:01;29.10;64.50
16643;DHT22;8435;52.184;5.406;2023-06-19T13:43:27;29.00;64.50
16643;DHT22;8435;52.184;5.406;2023-06-19T13:45:54;29.00;64.70
16643;DHT22;8435;52.184;5.406;2023-06-19T13:48:24;29.10;64.50
16643;DHT22;8435;52.184;5.406;2023-06-19T13:50:50;29.00;63.80
16643;DHT22;8435;52.184;5.406;2023-06-19T13:53:18;29.00;64.20
16643;DHT22;8435;52.184;5.406;2023-06-19T13:55:47;29.00;64.00
16643;DHT22;8435;52.184;5.406;2023-06-19T13:58:13;29.00;64.10
16643;DHT22;8435;52.184;5.406;2023-06-19T14:00:40;29.00;64.40
16643;DHT22;8435;52.184;5.406;2023-06-19T14:03:07;29.10;64.60
16643;DHT22;8435;52.184;5.406;2023-06-19T14:05:34;29.10;63.70
16643;DHT22;8435;52.184;5.406;2023-06-19T14:08:01;29.10;64.10
16643;DHT22;8435;52.184;5.406;2023-06-19T14:10:30;29.10;64.10
16643;DHT22;8435;52.184;5.406;2023-06-19T14:12:56;29.10;64.00
16643;DHT22;8435;52.184;5.406;2023-06-19T14:15:23;29.10;64.20
16643;DHT22;8435;52.184;5.406;2023-06-19T14:17:50;29.10;63.70
16643;DHT22;8435;52.184;5.406;2023-06-19T14:20:16;29.20;63.70
16643;DHT22;8435;52.184;5.406;2023-06-19T14:22:43;29.20;63.30
16643;DHT22;8435;52.184;5.406;2023-06-19T14:25:10;29.20;63.20
16643;DHT22;8435;52.184;5.406;2023-06-19T14:27:39;29.20;63.20
16643;DHT22;8435;52.184;5.406;2023-06-19T14:30:06;29.20;63.00
16643;DHT22;8435;52.184;5.406;2023-06-19T14:32:35;29.20;63.00
16643;DHT22;8435;52.184;5.406;2023-06-19T14:35:02;29.20;62.90
16643;DHT22;8435;52.184;5.406;2023-06-19T14:37:29;29.20;62.70
16643;DHT22;8435;52.184;5.406;2023-06-19T14:39:56;29.20;62.80
16643;DHT22;8435;52.184;5.406;2023-06-19T14:42:22;29.20;62.60
16643;DHT22;8435;52.184;5.406;2023-06-19T14:44:50;29.20;62.60
16643;DHT22;8435;52.184;5.406;2023-06-19T14:47:17;29.20;62.60
16643;DHT22;8435;52.184;5.406;2023-06-19T14:49:44;29.20;62.90
16643;DHT22;8435;52.184;5.406;2023-06-19T14:52:11;29.20;63.00
16643;DHT22;8435;52.184;5.406;2023-06-19T14:54:37;29.20;63.00
16643;DHT22;8435;52.184;5.406;2023-06-19T14:57:04;29.30;63.00
16643;DHT22;8435;52.184;5.406;2023-06-19T14:59:31;29.30;62.90
16643;DHT22;8435;52.184;5.406;2023-06-19T15:01:59;29.30;62.70
16643;DHT22;8435;52.184;5.406;2023-06-19T15:04:27;29.30;62.40
16643;DHT22;8435;52.184;5.406;2023-06-19T15:06:54;29.30;63.40
16643;DHT22;8435;52.184;5.406;2023-06-19T15:09:21;29.30;62.40
16643;DHT22;8435;52.184;5.406;2023-06-19T15:11:48;29.30;62.40
16643;DHT22;8435;52.184;5.406;2023-06-19T15:14:14;29.30;62.10
16643;DHT22;8435;52.184;5.406;2023-06-19T15:16:42;29.30;62.40
16643;DHT22;8435;52.184;5.406;2023-06-19T15:19:10;29.30;62.60
16643;DHT22;8435;52.184;5.406;2023-06-19T15:21:37;29.20;62.30
16643;DHT22;8435;52.184;5.406;2023-06-19T15:24:04;29.20;62.10
16643;DHT22;8435;52.184;5.406;2023-06-19T15:26:31;29.20;62.20
16643;DHT22;8435;52.184;5.406;2023-06-19T15:28:58;29.20;62.30
16643;DHT22;8435;52.184;5.406;2023-06-19T15:31:25;29.30;62.30
16643;DHT22;8435;52.184;5.406;2023-06-19T15:33:52;29.30;62.20
16643;DHT22;8435;52.184;5.406;2023-06-19T15:36:20;29.30;62.10
16643;DHT22;8435;52.184;5.406;2023-06-19T15:38:47;29.30;62.40
16643;DHT22;8435;52.184;5.406;2023-06-19T15:41:14;29.30;62.30
16643;DHT22;8435;52.184;5.406;2023-06-19T15:43:41;29.30;62.00
16643;DHT22;8435;52.184;5.406;2023-06-19T15:46:08;29.30;62.20